sensor_id;sensor_type;location;lat;lon;timestamp;P1;durP1;ratioP1;P2;durP2;ratioP2
13238;SDS011;6686;51.292;4.166;2022-12-29T00:01:09;2.00;;;1.37;;
13238;SDS011;6686;51.292;4.166;2022-12-29T00:03:58;1.73;;;1.40;;
13238;SDS011;6686;51.292;4.166;2022-12-29T00:06:40;1.70;;;1.60;;
13238;SDS011;6686;51.292;4.166;2022-12-29T00:09:26;2.65;;;1.98;;
13238;SDS011;6686;51.292;4.166;2022-12-29T00:12:11;2.50;;;1.70;;
13238;SDS011;6686;51.292;4.166;2022-12-29T00:14:57;2.30;;;2.13;;
13238;SDS011;6686;51.292;4.166;2022-12-29T00:18:01;2.97;;;2.50;;
13238;SDS011;6686;51.292;4.166;2022-12-29T00:20:46;2.80;;;2.30;;
13238;SDS011;6686;51.292;4.166;2022-12-29T00:23:36;2.30;;;2.10;;
13238;SDS011;6686;51.292;4.166;2022-12-29T00:26:39;3.17;;;1.80;;
13238;SDS011;6686;51.292;4.166;2022-12-29T00:29:43;2.37;;;2.17;;
13238;SDS011;6686;51.292;4.166;2022-12-29T00:32:48;1.97;;;1.77;;
13238;SDS011;6686;51.292;4.166;2022-12-29T00:35:52;2.30;;;1.70;;
13238;SDS011;6686;51.292;4.166;2022-12-29T00:38:38;2.30;;;1.80;;
13238;SDS011;6686;51.292;4.166;2022-12-29T00:41:41;1.47;;;1.37;;
13238;SDS011;6686;51.292;4.166;2022-12-29T00:44:45;1.57;;;1.47;;
13238;SDS011;6686;51.292;4.166;2022-12-29T00:47:31;1.90;;;1.27;;
13238;SDS011;6686;51.292;4.166;2022-12-29T00:50:17;1.87;;;1.30;;
13238;SDS011;6686;51.292;4.166;2022-12-29T00:53:03;1.43;;;1.23;;
13238;SDS011;6686;51.292;4.166;2022-12-29T00:55:48;2.43;;;1.37;;
13238;SDS011;6686;51.292;4.166;2022-12-29T00:58:34;2.93;;;1.50;;
13238;SDS011;6686;51.292;4.166;2022-12-29T01:01:20;1.97;;;1.43;;
13238;SDS011;6686;51.292;4.166;2022-12-29T01:04:05;1.97;;;1.27;;
13238;SDS011;6686;51.292;4.166;2022-12-29T01:06:51;2.03;;;1.10;;
13238;SDS011;6686;51.292;4.166;2022-12-29T01:09:37;2.20;;;1.40;;
13238;SDS011;6686;51.292;4.166;2022-12-29T01:12:41;3.07;;;1.43;;
13238;SDS011;6686;51.292;4.166;2022-12-29T01:15:27;4.70;;;1.50;;
13238;SDS011;6686;51.292;4.166;2022-12-29T01:18:13;2.27;;;1.30;;
13238;SDS011;6686;51.292;4.166;2022-12-29T01:20:59;3.33;;;1.20;;
13238;SDS011;6686;51.292;4.166;2022-12-29T01:23:47;3.10;;;1.37;;
13238;SDS011;6686;51.292;4.166;2022-12-29T01:26:32;1.83;;;1.30;;
13238;SDS011;6686;51.292;4.166;2022-12-29T01:29:19;5.07;;;1.70;;
13238;SDS011;6686;51.292;4.166;2022-12-29T01:32:05;2.93;;;1.20;;
13238;SDS011;6686;51.292;4.166;2022-12-29T01:34:51;0.90;;;0.87;;
13238;SDS011;6686;51.292;4.166;2022-12-29T01:37:36;2.40;;;1.10;;
13238;SDS011;6686;51.292;4.166;2022-12-29T01:40:22;3.37;;;1.47;;
13238;SDS011;6686;51.292;4.166;2022-12-29T01:43:08;2.83;;;1.13;;
13238;SDS011;6686;51.292;4.166;2022-12-29T01:45:53;2.60;;;1.27;;
13238;SDS011;6686;51.292;4.166;2022-12-29T01:48:39;3.23;;;1.53;;
13238;SDS011;6686;51.292;4.166;2022-12-29T01:51:24;2.90;;;1.37;;
13238;SDS011;6686;51.292;4.166;2022-12-29T01:54:15;3.40;;;1.60;;
13238;SDS011;6686;51.292;4.166;2022-12-29T01:56:57;4.70;;;1.50;;
13238;SDS011;6686;51.292;4.166;2022-12-29T01:59:48;3.33;;;1.30;;
13238;SDS011;6686;51.292;4.166;2022-12-29T02:02:28;2.17;;;1.50;;
13238;SDS011;6686;51.292;4.166;2022-12-29T02:05:27;3.20;;;1.50;;
13238;SDS011;6686;51.292;4.166;2022-12-29T02:08:11;4.22;;;1.70;;
13238;SDS011;6686;51.292;4.166;2022-12-29T02:10:56;3.80;;;1.70;;
13238;SDS011;6686;51.292;4.166;2022-12-29T02:13:42;2.13;;;1.50;;
13238;SDS011;6686;51.292;4.166;2022-12-29T02:31:59;3.53;;;1.70;;
13238;SDS011;6686;51.292;4.166;2022-12-29T02:34:58;4.27;;;2.00;;
13238;SDS011;6686;51.292;4.166;2022-12-29T02:41:08;3.00;;;1.40;;
13238;SDS011;6686;51.292;4.166;2022-12-29T02:44:19;2.30;;;1.33;;
13238;SDS011;6686;51.292;4.166;2022-12-29T02:47:22;4.18;;;1.40;;
13238;SDS011;6686;51.292;4.166;2022-12-29T02:50:00;4.72;;;1.42;;
13238;SDS011;6686;51.292;4.166;2022-12-29T02:53:09;5.03;;;1.70;;
13238;SDS011;6686;51.292;4.166;2022-12-29T02:55:38;2.83;;;1.40;;
13238;SDS011;6686;51.292;4.166;2022-12-29T02:58:23;1.90;;;1.20;;
13238;SDS011;6686;51.292;4.166;2022-12-29T03:05:30;3.63;;;1.50;;
13238;SDS011;6686;51.292;4.166;2022-12-29T03:13:13;3.50;;;1.33;;
13238;SDS011;6686;51.292;4.166;2022-12-29T03:16:24;5.50;;;1.50;;
13238;SDS011;6686;51.292;4.166;2022-12-29T03:19:32;3.30;;;1.33;;
13238;SDS011;6686;51.292;4.166;2022-12-29T03:22:20;6.03;;;1.43;;
13238;SDS011;6686;51.292;4.166;2022-12-29T03:25:28;6.43;;;1.73;;
13238;SDS011;6686;51.292;4.166;2022-12-29T03:28:22;4.10;;;1.80;;
13238;SDS011;6686;51.292;4.166;2022-12-29T03:31:06;4.57;;;1.40;;
13238;SDS011;6686;51.292;4.166;2022-12-29T03:33:52;5.27;;;1.70;;
13238;SDS011;6686;51.292;4.166;2022-12-29T03:36:58;3.43;;;1.70;;
13238;SDS011;6686;51.292;4.166;2022-12-29T03:39:39;5.17;;;2.23;;
13238;SDS011;6686;51.292;4.166;2022-12-29T03:42:25;8.90;;;2.30;;
13238;SDS011;6686;51.292;4.166;2022-12-29T03:45:13;4.53;;;2.13;;
13238;SDS011;6686;51.292;4.166;2022-12-29T03:47:59;4.20;;;1.90;;
13238;SDS011;6686;51.292;4.166;2022-12-29T03:50:45;6.90;;;2.50;;
13238;SDS011;6686;51.292;4.166;2022-12-29T03:53:30;6.10;;;2.30;;
13238;SDS011;6686;51.292;4.166;2022-12-29T03:56:16;3.67;;;2.23;;
13238;SDS011;6686;51.292;4.166;2022-12-29T03:59:02;6.53;;;2.13;;
13238;SDS011;6686;51.292;4.166;2022-12-29T04:01:47;5.43;;;2.07;;
13238;SDS011;6686;51.292;4.166;2022-12-29T04:04:33;3.47;;;1.83;;
13238;SDS011;6686;51.292;4.166;2022-12-29T04:07:19;6.07;;;1.77;;
13238;SDS011;6686;51.292;4.166;2022-12-29T04:10:05;4.80;;;1.80;;
13238;SDS011;6686;51.292;4.166;2022-12-29T04:12:51;5.80;;;1.77;;
13238;SDS011;6686;51.292;4.166;2022-12-29T04:15:37;3.77;;;1.53;;
13238;SDS011;6686;51.292;4.166;2022-12-29T04:18:22;4.20;;;1.37;;
13238;SDS011;6686;51.292;4.166;2022-12-29T04:21:08;6.40;;;1.77;;
13238;SDS011;6686;51.292;4.166;2022-12-29T04:23:54;5.50;;;1.47;;
13238;SDS011;6686;51.292;4.166;2022-12-29T04:26:39;4.87;;;1.80;;
13238;SDS011;6686;51.292;4.166;2022-12-29T04:29:25;6.73;;;2.23;;
13238;SDS011;6686;51.292;4.166;2022-12-29T04:32:11;7.23;;;2.10;;
13238;SDS011;6686;51.292;4.166;2022-12-29T04:34:57;3.23;;;1.73;;
13238;SDS011;6686;51.292;4.166;2022-12-29T04:37:42;7.93;;;2.30;;
13238;SDS011;6686;51.292;4.166;2022-12-29T04:40:28;7.63;;;2.13;;
13238;SDS011;6686;51.292;4.166;2022-12-29T04:43:14;7.50;;;1.83;;
13238;SDS011;6686;51.292;4.166;2022-12-29T04:45:59;4.90;;;1.80;;
13238;SDS011;6686;51.292;4.166;2022-12-29T04:48:45;5.20;;;1.60;;
13238;SDS011;6686;51.292;4.166;2022-12-29T04:51:31;4.90;;;1.53;;
13238;SDS011;6686;51.292;4.166;2022-12-29T04:54:16;6.40;;;1.95;;
13238;SDS011;6686;51.292;4.166;2022-12-29T04:57:02;7.03;;;1.90;;
13238;SDS011;6686;51.292;4.166;2022-12-29T04:59:48;9.33;;;1.83;;
13238;SDS011;6686;51.292;4.166;2022-12-29T05:02:35;6.93;;;2.00;;
13238;SDS011;6686;51.292;4.166;2022-12-29T05:05:20;6.07;;;2.00;;
13238;SDS011;6686;51.292;4.166;2022-12-29T05:08:05;6.37;;;1.97;;
13238;SDS011;6686;51.292;4.166;2022-12-29T05:10:51;7.40;;;1.87;;
13238;SDS011;6686;51.292;4.166;2022-12-29T05:13:36;6.28;;;2.00;;
13238;SDS011;6686;51.292;4.166;2022-12-29T05:16:22;5.50;;;1.53;;
13238;SDS011;6686;51.292;4.166;2022-12-29T05:19:08;5.53;;;1.57;;
13238;SDS011;6686;51.292;4.166;2022-12-29T05:21:54;11.47;;;2.27;;
13238;SDS011;6686;51.292;4.166;2022-12-29T05:24:40;7.70;;;2.03;;
13238;SDS011;6686;51.292;4.166;2022-12-29T05:27:26;5.93;;;2.07;;
13238;SDS011;6686;51.292;4.166;2022-12-29T05:30:12;3.83;;;1.53;;
13238;SDS011;6686;51.292;4.166;2022-12-29T05:32:58;5.40;;;1.40;;
13238;SDS011;6686;51.292;4.166;2022-12-29T05:35:43;6.97;;;2.08;;
13238;SDS011;6686;51.292;4.166;2022-12-29T05:38:29;4.57;;;1.70;;
13238;SDS011;6686;51.292;4.166;2022-12-29T05:41:14;8.07;;;2.10;;
13238;SDS011;6686;51.292;4.166;2022-12-29T05:44:00;4.87;;;1.63;;
13238;SDS011;6686;51.292;4.166;2022-12-29T05:46:46;3.30;;;1.50;;
13238;SDS011;6686;51.292;4.166;2022-12-29T05:49:32;4.83;;;1.80;;
13238;SDS011;6686;51.292;4.166;2022-12-29T05:52:17;6.73;;;1.30;;
13238;SDS011;6686;51.292;4.166;2022-12-29T05:55:03;4.70;;;1.47;;
13238;SDS011;6686;51.292;4.166;2022-12-29T05:57:49;6.77;;;1.83;;
13238;SDS011;6686;51.292;4.166;2022-12-29T06:00:35;4.67;;;1.70;;
13238;SDS011;6686;51.292;4.166;2022-12-29T06:03:20;4.57;;;1.60;;
13238;SDS011;6686;51.292;4.166;2022-12-29T06:06:06;4.63;;;1.50;;
13238;SDS011;6686;51.292;4.166;2022-12-29T06:08:51;3.67;;;1.53;;
13238;SDS011;6686;51.292;4.166;2022-12-29T06:11:37;4.40;;;1.70;;
13238;SDS011;6686;51.292;4.166;2022-12-29T06:14:23;3.67;;;1.67;;
13238;SDS011;6686;51.292;4.166;2022-12-29T06:17:08;3.90;;;1.50;;
13238;SDS011;6686;51.292;4.166;2022-12-29T06:19:54;7.57;;;1.70;;
13238;SDS011;6686;51.292;4.166;2022-12-29T06:22:40;3.47;;;1.40;;
13238;SDS011;6686;51.292;4.166;2022-12-29T06:25:25;6.57;;;2.07;;
13238;SDS011;6686;51.292;4.166;2022-12-29T06:28:11;7.28;;;1.80;;
13238;SDS011;6686;51.292;4.166;2022-12-29T06:30:57;8.45;;;2.40;;
13238;SDS011;6686;51.292;4.166;2022-12-29T06:33:43;4.60;;;1.60;;
13238;SDS011;6686;51.292;4.166;2022-12-29T06:36:29;8.30;;;1.93;;
13238;SDS011;6686;51.292;4.166;2022-12-29T06:39:14;7.60;;;2.00;;
13238;SDS011;6686;51.292;4.166;2022-12-29T06:42:00;8.20;;;2.40;;
13238;SDS011;6686;51.292;4.166;2022-12-29T06:44:45;6.33;;;1.90;;
13238;SDS011;6686;51.292;4.166;2022-12-29T06:47:30;4.63;;;1.60;;
13238;SDS011;6686;51.292;4.166;2022-12-29T06:50:16;5.57;;;2.30;;
13238;SDS011;6686;51.292;4.166;2022-12-29T06:53:02;5.13;;;1.90;;
13238;SDS011;6686;51.292;4.166;2022-12-29T06:55:47;9.70;;;2.60;;
13238;SDS011;6686;51.292;4.166;2022-12-29T06:58:33;8.82;;;2.58;;
13238;SDS011;6686;51.292;4.166;2022-12-29T07:01:18;5.37;;;2.20;;
13238;SDS011;6686;51.292;4.166;2022-12-29T07:04:04;8.18;;;2.40;;
13238;SDS011;6686;51.292;4.166;2022-12-29T07:06:50;7.63;;;2.43;;
13238;SDS011;6686;51.292;4.166;2022-12-29T07:09:36;9.35;;;2.85;;
13238;SDS011;6686;51.292;4.166;2022-12-29T07:12:21;7.57;;;2.30;;
13238;SDS011;6686;51.292;4.166;2022-12-29T07:15:07;3.83;;;1.80;;
13238;SDS011;6686;51.292;4.166;2022-12-29T07:17:53;6.37;;;2.10;;
13238;SDS011;6686;51.292;4.166;2022-12-29T07:20:38;7.30;;;2.23;;
13238;SDS011;6686;51.292;4.166;2022-12-29T07:23:24;8.45;;;2.60;;
13238;SDS011;6686;51.292;4.166;2022-12-29T07:26:11;5.90;;;2.10;;
13238;SDS011;6686;51.292;4.166;2022-12-29T07:28:56;8.23;;;2.53;;
13238;SDS011;6686;51.292;4.166;2022-12-29T07:31:41;9.65;;;2.53;;
13238;SDS011;6686;51.292;4.166;2022-12-29T07:34:27;9.73;;;3.13;;
13238;SDS011;6686;51.292;4.166;2022-12-29T07:37:14;9.13;;;2.30;;
13238;SDS011;6686;51.292;4.166;2022-12-29T07:39:59;6.13;;;1.90;;
13238;SDS011;6686;51.292;4.166;2022-12-29T07:42:44;8.23;;;2.60;;
13238;SDS011;6686;51.292;4.166;2022-12-29T07:45:30;6.77;;;2.27;;
13238;SDS011;6686;51.292;4.166;2022-12-29T07:48:16;8.77;;;2.50;;
13238;SDS011;6686;51.292;4.166;2022-12-29T07:51:01;8.83;;;2.30;;
13238;SDS011;6686;51.292;4.166;2022-12-29T07:53:47;6.73;;;2.80;;
13238;SDS011;6686;51.292;4.166;2022-12-29T07:56:33;11.83;;;2.60;;
13238;SDS011;6686;51.292;4.166;2022-12-29T07:59:18;10.53;;;2.53;;
13238;SDS011;6686;51.292;4.166;2022-12-29T08:02:04;6.37;;;2.30;;
13238;SDS011;6686;51.292;4.166;2022-12-29T08:04:49;6.57;;;1.90;;
13238;SDS011;6686;51.292;4.166;2022-12-29T08:07:35;4.97;;;2.03;;
13238;SDS011;6686;51.292;4.166;2022-12-29T08:10:21;9.63;;;2.30;;
13238;SDS011;6686;51.292;4.166;2022-12-29T08:13:06;7.33;;;1.80;;
13238;SDS011;6686;51.292;4.166;2022-12-29T08:15:52;8.07;;;2.67;;
13238;SDS011;6686;51.292;4.166;2022-12-29T08:18:38;11.10;;;2.43;;
13238;SDS011;6686;51.292;4.166;2022-12-29T08:21:24;9.17;;;2.30;;
13238;SDS011;6686;51.292;4.166;2022-12-29T08:24:09;12.60;;;3.00;;
13238;SDS011;6686;51.292;4.166;2022-12-29T08:26:55;9.67;;;3.10;;
13238;SDS011;6686;51.292;4.166;2022-12-29T08:29:41;14.73;;;3.03;;
13238;SDS011;6686;51.292;4.166;2022-12-29T08:32:27;8.67;;;2.53;;
13238;SDS011;6686;51.292;4.166;2022-12-29T08:35:12;8.13;;;2.30;;
13238;SDS011;6686;51.292;4.166;2022-12-29T08:37:58;6.33;;;1.87;;
13238;SDS011;6686;51.292;4.166;2022-12-29T08:40:44;5.13;;;2.23;;
13238;SDS011;6686;51.292;4.166;2022-12-29T08:43:30;10.50;;;2.83;;
13238;SDS011;6686;51.292;4.166;2022-12-29T08:46:15;11.30;;;2.17;;
13238;SDS011;6686;51.292;4.166;2022-12-29T08:49:01;6.40;;;1.97;;
13238;SDS011;6686;51.292;4.166;2022-12-29T08:51:47;9.63;;;2.97;;
13238;SDS011;6686;51.292;4.166;2022-12-29T08:54:33;8.70;;;2.37;;
13238;SDS011;6686;51.292;4.166;2022-12-29T08:57:18;11.97;;;2.73;;
13238;SDS011;6686;51.292;4.166;2022-12-29T09:00:04;10.23;;;2.73;;
13238;SDS011;6686;51.292;4.166;2022-12-29T09:02:50;7.13;;;2.70;;
13238;SDS011;6686;51.292;4.166;2022-12-29T09:05:36;7.70;;;2.37;;
13238;SDS011;6686;51.292;4.166;2022-12-29T09:08:21;11.57;;;3.03;;
13238;SDS011;6686;51.292;4.166;2022-12-29T09:11:14;13.70;;;2.60;;
13238;SDS011;6686;51.292;4.166;2022-12-29T09:14:05;6.03;;;2.50;;
13238;SDS011;6686;51.292;4.166;2022-12-29T09:16:47;11.43;;;2.83;;
13238;SDS011;6686;51.292;4.166;2022-12-29T09:19:52;15.43;;;3.07;;
13238;SDS011;6686;51.292;4.166;2022-12-29T09:22:37;8.97;;;2.50;;
13238;SDS011;6686;51.292;4.166;2022-12-29T09:25:23;8.03;;;3.27;;
13238;SDS011;6686;51.292;4.166;2022-12-29T09:28:09;16.07;;;2.87;;
13238;SDS011;6686;51.292;4.166;2022-12-29T09:30:55;11.07;;;3.30;;
13238;SDS011;6686;51.292;4.166;2022-12-29T09:33:41;7.90;;;2.13;;
13238;SDS011;6686;51.292;4.166;2022-12-29T09:36:27;7.17;;;2.77;;
13238;SDS011;6686;51.292;4.166;2022-12-29T09:39:13;11.10;;;3.07;;
13238;SDS011;6686;51.292;4.166;2022-12-29T09:45:16;10.60;;;3.07;;
13238;SDS011;6686;51.292;4.166;2022-12-29T09:48:20;10.73;;;3.70;;
13238;SDS011;6686;51.292;4.166;2022-12-29T09:51:06;11.27;;;2.97;;
13238;SDS011;6686;51.292;4.166;2022-12-29T09:53:51;8.47;;;2.97;;
13238;SDS011;6686;51.292;4.166;2022-12-29T09:56:41;9.00;;;2.40;;
13238;SDS011;6686;51.292;4.166;2022-12-29T09:59:32;11.00;;;2.80;;
13238;SDS011;6686;51.292;4.166;2022-12-29T10:02:16;11.13;;;3.33;;
13238;SDS011;6686;51.292;4.166;2022-12-29T10:05:08;8.80;;;2.70;;
13238;SDS011;6686;51.292;4.166;2022-12-29T10:07:52;11.32;;;3.10;;
13238;SDS011;6686;51.292;4.166;2022-12-29T10:10:57;12.73;;;3.20;;
13238;SDS011;6686;51.292;4.166;2022-12-29T10:13:51;11.73;;;3.00;;
13238;SDS011;6686;51.292;4.166;2022-12-29T10:22:32;12.17;;;3.00;;
13238;SDS011;6686;51.292;4.166;2022-12-29T10:25:22;11.25;;;3.45;;
13238;SDS011;6686;51.292;4.166;2022-12-29T10:28:09;9.37;;;2.70;;
13238;SDS011;6686;51.292;4.166;2022-12-29T10:30:52;8.17;;;2.90;;
13238;SDS011;6686;51.292;4.166;2022-12-29T10:33:39;11.53;;;3.23;;
13238;SDS011;6686;51.292;4.166;2022-12-29T10:36:27;13.53;;;3.30;;
13238;SDS011;6686;51.292;4.166;2022-12-29T10:39:21;7.50;;;2.80;;
13238;SDS011;6686;51.292;4.166;2022-12-29T10:42:09;7.57;;;2.67;;
13238;SDS011;6686;51.292;4.166;2022-12-29T10:44:50;11.97;;;3.23;;
13238;SDS011;6686;51.292;4.166;2022-12-29T10:47:38;14.70;;;3.75;;
13238;SDS011;6686;51.292;4.166;2022-12-29T10:50:22;25.13;;;15.80;;
13238;SDS011;6686;51.292;4.166;2022-12-29T10:53:17;12.17;;;3.23;;
13238;SDS011;6686;51.292;4.166;2022-12-29T10:56:05;9.03;;;2.57;;
13238;SDS011;6686;51.292;4.166;2022-12-29T10:58:51;12.17;;;3.07;;
13238;SDS011;6686;51.292;4.166;2022-12-29T11:01:41;11.70;;;3.40;;
13238;SDS011;6686;51.292;4.166;2022-12-29T11:04:25;13.57;;;3.40;;
13238;SDS011;6686;51.292;4.166;2022-12-29T11:07:08;11.95;;;3.62;;
13238;SDS011;6686;51.292;4.166;2022-12-29T11:09:53;12.48;;;3.22;;
13238;SDS011;6686;51.292;4.166;2022-12-29T11:12:39;8.10;;;2.97;;
13238;SDS011;6686;51.292;4.166;2022-12-29T11:15:25;11.77;;;3.23;;
13238;SDS011;6686;51.292;4.166;2022-12-29T11:18:21;8.27;;;2.50;;
13238;SDS011;6686;51.292;4.166;2022-12-29T11:21:30;10.60;;;3.35;;
13238;SDS011;6686;51.292;4.166;2022-12-29T11:24:20;11.33;;;2.97;;
13238;SDS011;6686;51.292;4.166;2022-12-29T11:27:20;10.00;;;3.33;;
13238;SDS011;6686;51.292;4.166;2022-12-29T11:30:10;8.23;;;2.70;;
13238;SDS011;6686;51.292;4.166;2022-12-29T11:32:51;12.23;;;2.70;;
13238;SDS011;6686;51.292;4.166;2022-12-29T11:35:39;8.57;;;2.60;;
13238;SDS011;6686;51.292;4.166;2022-12-29T11:38:22;7.87;;;2.55;;
13238;SDS011;6686;51.292;4.166;2022-12-29T11:41:10;5.00;;;2.53;;
13238;SDS011;6686;51.292;4.166;2022-12-29T11:43:53;8.90;;;2.27;;
13238;SDS011;6686;51.292;4.166;2022-12-29T11:46:39;4.83;;;2.20;;
13238;SDS011;6686;51.292;4.166;2022-12-29T11:49:25;5.23;;;2.33;;
13238;SDS011;6686;51.292;4.166;2022-12-29T11:52:10;7.60;;;2.37;;
13238;SDS011;6686;51.292;4.166;2022-12-29T11:54:56;10.47;;;2.50;;
13238;SDS011;6686;51.292;4.166;2022-12-29T11:57:42;7.77;;;2.87;;
13238;SDS011;6686;51.292;4.166;2022-12-29T12:00:28;10.00;;;2.70;;
13238;SDS011;6686;51.292;4.166;2022-12-29T12:03:17;7.80;;;2.73;;
13238;SDS011;6686;51.292;4.166;2022-12-29T12:06:02;6.43;;;2.90;;
13238;SDS011;6686;51.292;4.166;2022-12-29T12:11:37;5.10;;;2.40;;
13238;SDS011;6686;51.292;4.166;2022-12-29T12:14:36;9.43;;;2.90;;
13238;SDS011;6686;51.292;4.166;2022-12-29T12:17:25;7.57;;;2.40;;
13238;SDS011;6686;51.292;4.166;2022-12-29T12:23:15;8.05;;;2.40;;
13238;SDS011;6686;51.292;4.166;2022-12-29T12:26:09;9.53;;;2.50;;
13238;SDS011;6686;51.292;4.166;2022-12-29T12:28:56;5.22;;;1.90;;
13238;SDS011;6686;51.292;4.166;2022-12-29T12:32:05;4.07;;;1.87;;
13238;SDS011;6686;51.292;4.166;2022-12-29T12:34:48;8.32;;;2.20;;
13238;SDS011;6686;51.292;4.166;2022-12-29T12:38:19;4.03;;;1.70;;
13238;SDS011;6686;51.292;4.166;2022-12-29T12:46:50;11.73;;;2.90;;
13238;SDS011;6686;51.292;4.166;2022-12-29T12:56:03;8.57;;;2.75;;
13238;SDS011;6686;51.292;4.166;2022-12-29T12:58:53;6.90;;;2.23;;
13238;SDS011;6686;51.292;4.166;2022-12-29T13:10:39;7.03;;;1.80;;
13238;SDS011;6686;51.292;4.166;2022-12-29T13:13:35;6.33;;;2.13;;
13238;SDS011;6686;51.292;4.166;2022-12-29T13:19:19;7.23;;;2.50;;
13238;SDS011;6686;51.292;4.166;2022-12-29T13:22:09;7.60;;;2.33;;
13238;SDS011;6686;51.292;4.166;2022-12-29T13:27:58;5.80;;;2.20;;
13238;SDS011;6686;51.292;4.166;2022-12-29T13:30:45;7.90;;;2.10;;
13238;SDS011;6686;51.292;4.166;2022-12-29T13:33:32;10.53;;;2.53;;
13238;SDS011;6686;51.292;4.166;2022-12-29T13:36:33;5.50;;;2.00;;
13238;SDS011;6686;51.292;4.166;2022-12-29T13:39:28;7.90;;;1.97;;
13238;SDS011;6686;51.292;4.166;2022-12-29T13:42:18;6.07;;;1.60;;
13238;SDS011;6686;51.292;4.166;2022-12-29T13:45:09;5.17;;;2.00;;
13238;SDS011;6686;51.292;4.166;2022-12-29T13:50:59;4.30;;;1.77;;
13238;SDS011;6686;51.292;4.166;2022-12-29T14:08:14;5.53;;;1.90;;
13238;SDS011;6686;51.292;4.166;2022-12-29T14:10:55;7.43;;;1.80;;
13238;SDS011;6686;51.292;4.166;2022-12-29T14:13:41;6.70;;;2.05;;
13238;SDS011;6686;51.292;4.166;2022-12-29T14:16:27;5.87;;;1.80;;
13238;SDS011;6686;51.292;4.166;2022-12-29T14:19:23;6.73;;;1.87;;
13238;SDS011;6686;51.292;4.166;2022-12-29T14:22:06;5.27;;;1.50;;
13238;SDS011;6686;51.292;4.166;2022-12-29T14:24:52;4.12;;;1.50;;
13238;SDS011;6686;51.292;4.166;2022-12-29T14:27:44;4.50;;;1.47;;
13238;SDS011;6686;51.292;4.166;2022-12-29T14:33:34;3.00;;;1.87;;
13238;SDS011;6686;51.292;4.166;2022-12-29T14:42:27;6.03;;;1.70;;
13238;SDS011;6686;51.292;4.166;2022-12-29T14:47:58;5.17;;;1.50;;
13238;SDS011;6686;51.292;4.166;2022-12-29T14:50:44;3.97;;;1.97;;
13238;SDS011;6686;51.292;4.166;2022-12-29T14:56:33;5.33;;;1.50;;
13238;SDS011;6686;51.292;4.166;2022-12-29T14:59:19;3.97;;;2.17;;
13238;SDS011;6686;51.292;4.166;2022-12-29T15:02:12;7.43;;;1.98;;
13238;SDS011;6686;51.292;4.166;2022-12-29T15:04:50;6.70;;;2.00;;
13238;SDS011;6686;51.292;4.166;2022-12-29T15:07:36;5.03;;;1.80;;
13238;SDS011;6686;51.292;4.166;2022-12-29T15:10:22;4.90;;;1.60;;
13238;SDS011;6686;51.292;4.166;2022-12-29T15:13:13;5.30;;;1.70;;
13238;SDS011;6686;51.292;4.166;2022-12-29T15:15:59;5.95;;;1.75;;
13238;SDS011;6686;51.292;4.166;2022-12-29T15:18:45;5.23;;;1.60;;
13238;SDS011;6686;51.292;4.166;2022-12-29T15:21:32;3.87;;;1.70;;
13238;SDS011;6686;51.292;4.166;2022-12-29T15:24:19;5.83;;;1.93;;
13238;SDS011;6686;51.292;4.166;2022-12-29T15:27:05;7.53;;;1.80;;
13238;SDS011;6686;51.292;4.166;2022-12-29T15:30:00;4.13;;;1.67;;
13238;SDS011;6686;51.292;4.166;2022-12-29T15:32:45;8.77;;;2.20;;
13238;SDS011;6686;51.292;4.166;2022-12-29T15:35:32;4.93;;;1.80;;
13238;SDS011;6686;51.292;4.166;2022-12-29T15:38:21;3.63;;;1.57;;
13238;SDS011;6686;51.292;4.166;2022-12-29T15:41:06;6.62;;;2.20;;
13238;SDS011;6686;51.292;4.166;2022-12-29T15:44:15;7.30;;;2.40;;
13238;SDS011;6686;51.292;4.166;2022-12-29T15:46:55;5.57;;;2.07;;
13238;SDS011;6686;51.292;4.166;2022-12-29T15:49:44;5.27;;;2.37;;
13238;SDS011;6686;51.292;4.166;2022-12-29T15:52:30;6.20;;;1.80;;
13238;SDS011;6686;51.292;4.166;2022-12-29T15:55:20;9.07;;;2.10;;
13238;SDS011;6686;51.292;4.166;2022-12-29T15:58:02;6.53;;;2.33;;
13238;SDS011;6686;51.292;4.166;2022-12-29T16:00:47;9.10;;;2.30;;
13238;SDS011;6686;51.292;4.166;2022-12-29T16:03:36;6.77;;;2.40;;
13238;SDS011;6686;51.292;4.166;2022-12-29T16:09:30;6.17;;;2.20;;
13238;SDS011;6686;51.292;4.166;2022-12-29T16:12:18;7.97;;;2.33;;
13238;SDS011;6686;51.292;4.166;2022-12-29T16:15:03;6.83;;;1.93;;
13238;SDS011;6686;51.292;4.166;2022-12-29T16:17:52;8.77;;;2.53;;
13238;SDS011;6686;51.292;4.166;2022-12-29T16:20:39;4.43;;;1.83;;
13238;SDS011;6686;51.292;4.166;2022-12-29T16:23:24;8.17;;;2.27;;
13238;SDS011;6686;51.292;4.166;2022-12-29T16:26:15;7.30;;;2.20;;
13238;SDS011;6686;51.292;4.166;2022-12-29T16:28:58;5.87;;;1.80;;
13238;SDS011;6686;51.292;4.166;2022-12-29T16:37:30;9.40;;;2.03;;
13238;SDS011;6686;51.292;4.166;2022-12-29T16:43:03;7.13;;;2.37;;
13238;SDS011;6686;51.292;4.166;2022-12-29T16:48:36;7.03;;;2.40;;
13238;SDS011;6686;51.292;4.166;2022-12-29T16:51:33;8.93;;;2.70;;
13238;SDS011;6686;51.292;4.166;2022-12-29T16:54:19;11.48;;;3.08;;
13238;SDS011;6686;51.292;4.166;2022-12-29T16:57:03;11.63;;;2.80;;
13238;SDS011;6686;51.292;4.166;2022-12-29T16:59:49;7.07;;;2.43;;
13238;SDS011;6686;51.292;4.166;2022-12-29T17:02:35;13.40;;;2.73;;
13238;SDS011;6686;51.292;4.166;2022-12-29T17:05:24;10.57;;;2.93;;
13238;SDS011;6686;51.292;4.166;2022-12-29T17:08:20;7.77;;;2.77;;
13238;SDS011;6686;51.292;4.166;2022-12-29T17:11:29;11.23;;;3.13;;
13238;SDS011;6686;51.292;4.166;2022-12-29T17:14:36;6.20;;;2.73;;
13238;SDS011;6686;51.292;4.166;2022-12-29T17:17:21;8.27;;;2.27;;
13238;SDS011;6686;51.292;4.166;2022-12-29T17:20:22;10.30;;;3.23;;
13238;SDS011;6686;51.292;4.166;2022-12-29T17:23:04;12.80;;;3.20;;
13238;SDS011;6686;51.292;4.166;2022-12-29T17:25:50;8.80;;;3.07;;
13238;SDS011;6686;51.292;4.166;2022-12-29T17:28:35;7.70;;;2.60;;
13238;SDS011;6686;51.292;4.166;2022-12-29T17:31:21;11.00;;;3.30;;
13238;SDS011;6686;51.292;4.166;2022-12-29T17:34:07;9.60;;;3.23;;
13238;SDS011;6686;51.292;4.166;2022-12-29T17:36:52;10.50;;;3.23;;
13238;SDS011;6686;51.292;4.166;2022-12-29T17:39:38;13.17;;;3.20;;
13238;SDS011;6686;51.292;4.166;2022-12-29T17:42:24;11.27;;;3.42;;
13238;SDS011;6686;51.292;4.166;2022-12-29T17:45:13;11.37;;;2.97;;
13238;SDS011;6686;51.292;4.166;2022-12-29T17:47:58;12.10;;;3.47;;
13238;SDS011;6686;51.292;4.166;2022-12-29T17:50:44;13.93;;;3.60;;
13238;SDS011;6686;51.292;4.166;2022-12-29T17:53:29;10.17;;;3.10;;
13238;SDS011;6686;51.292;4.166;2022-12-29T17:56:15;8.13;;;3.07;;
13238;SDS011;6686;51.292;4.166;2022-12-29T17:59:01;11.87;;;3.73;;
13238;SDS011;6686;51.292;4.166;2022-12-29T18:01:47;12.53;;;3.40;;
13238;SDS011;6686;51.292;4.166;2022-12-29T18:04:33;15.47;;;3.63;;
13238;SDS011;6686;51.292;4.166;2022-12-29T18:07:18;9.67;;;3.53;;
13238;SDS011;6686;51.292;4.166;2022-12-29T18:10:04;12.47;;;3.40;;
13238;SDS011;6686;51.292;4.166;2022-12-29T18:12:50;11.73;;;3.60;;
13238;SDS011;6686;51.292;4.166;2022-12-29T18:15:35;13.13;;;3.37;;
13238;SDS011;6686;51.292;4.166;2022-12-29T18:18:22;16.30;;;4.03;;
13238;SDS011;6686;51.292;4.166;2022-12-29T18:21:08;18.50;;;3.43;;
13238;SDS011;6686;51.292;4.166;2022-12-29T18:23:58;17.00;;;4.10;;
13238;SDS011;6686;51.292;4.166;2022-12-29T18:26:44;11.20;;;4.00;;
13238;SDS011;6686;51.292;4.166;2022-12-29T18:29:29;18.13;;;3.77;;
13238;SDS011;6686;51.292;4.166;2022-12-29T18:32:15;10.30;;;3.03;;
13238;SDS011;6686;51.292;4.166;2022-12-29T18:35:01;12.17;;;3.30;;
13238;SDS011;6686;51.292;4.166;2022-12-29T18:37:46;9.77;;;3.10;;
13238;SDS011;6686;51.292;4.166;2022-12-29T18:40:33;15.20;;;3.63;;
13238;SDS011;6686;51.292;4.166;2022-12-29T18:43:18;13.73;;;3.30;;
13238;SDS011;6686;51.292;4.166;2022-12-29T18:46:04;12.43;;;3.47;;
13238;SDS011;6686;51.292;4.166;2022-12-29T18:48:50;12.47;;;3.53;;
13238;SDS011;6686;51.292;4.166;2022-12-29T18:51:36;15.63;;;3.63;;
13238;SDS011;6686;51.292;4.166;2022-12-29T18:54:24;6.77;;;2.83;;
13238;SDS011;6686;51.292;4.166;2022-12-29T18:57:10;11.93;;;3.13;;
13238;SDS011;6686;51.292;4.166;2022-12-29T18:59:56;13.93;;;3.37;;